createdAt,value
2022-08-17T00:00:43.775Z,99.90
2022-08-17T00:03:22.425Z,99.90
2022-08-17T00:05:53.606Z,99.90
2022-08-17T00:08:25.547Z,99.90
2022-08-17T00:10:55.083Z,99.90
2022-08-17T00:13:27.562Z,99.90
2022-08-17T00:15:59.992Z,99.90
2022-08-17T00:18:57.648Z,99.90
2022-08-17T00:21:25.163Z,99.90
2022-08-17T00:23:55.394Z,99.90
2022-08-17T00:26:43.464Z,99.90
2022-08-17T00:29:19.580Z,99.90
2022-08-17T00:31:49.684Z,99.90
2022-08-17T00:34:20.273Z,99.90
2022-08-17T00:36:49.206Z,99.90
2022-08-17T00:39:18.037Z,99.90
2022-08-17T00:41:47.023Z,99.90
2022-08-17T00:44:16.491Z,99.90
2022-08-17T00:46:47.897Z,99.90
2022-08-17T00:49:19.597Z,99.90
2022-08-17T00:51:54.404Z,99.90
2022-08-17T00:54:26.695Z,99.90
2022-08-17T00:56:58.505Z,99.90
2022-08-17T00:59:32.355Z,99.90
2022-08-17T01:02:02.009Z,99.90
2022-08-17T01:04:33.498Z,99.90
2022-08-17T01:07:04.693Z,99.90
2022-08-17T01:09:34.203Z,99.90
2022-08-17T01:12:03.082Z,99.90
2022-08-17T01:14:32.055Z,99.90
2022-08-17T01:17:01.566Z,99.90
2022-08-17T01:19:32.593Z,99.90
2022-08-17T01:22:06.130Z,99.90
2022-08-17T01:24:38.723Z,99.90
2022-08-17T01:27:10.146Z,99.90
2022-08-17T01:29:42.430Z,99.90
2022-08-17T01:32:12.581Z,99.90
2022-08-17T01:34:42.510Z,99.90
2022-08-17T01:37:12.846Z,99.90
2022-08-17T01:39:46.679Z,99.90
2022-08-17T01:42:22.342Z,99.90
2022-08-17T01:44:56.660Z,99.90
2022-08-17T01:47:25.665Z,99.90
2022-08-17T01:49:54.517Z,99.90
2022-08-17T01:52:23.878Z,99.90
2022-08-17T01:54:54.920Z,99.90
2022-08-17T01:57:23.632Z,99.90
2022-08-17T01:59:52.426Z,99.90
2022-08-17T02:02:30.638Z,99.90
2022-08-17T02:05:01.122Z,99.90
2022-08-17T02:07:30.334Z,99.90
2022-08-17T02:10:01.229Z,99.90
2022-08-17T02:12:37.852Z,99.90
2022-08-17T02:15:12.408Z,99.90
2022-08-17T02:17:41.795Z,99.90
2022-08-17T02:20:11.730Z,99.90
2022-08-17T02:22:43.489Z,99.90
2022-08-17T02:25:17.744Z,99.90
2022-08-17T02:27:48.478Z,99.90
2022-08-17T02:31:01.766Z,99.90
2022-08-17T02:33:09.351Z,99.90
2022-08-17T02:35:38.968Z,99.90
2022-08-17T02:38:08.842Z,99.90
2022-08-17T02:40:40.615Z,99.90
2022-08-17T02:43:10.274Z,99.90
2022-08-17T02:45:39.658Z,99.90
2022-08-17T02:48:08.768Z,99.90
2022-08-17T02:50:38.300Z,99.90
2022-08-17T02:53:07.403Z,99.90
2022-08-17T02:55:41.583Z,99.90
2022-08-17T02:58:11.598Z,99.90
2022-08-17T03:00:42.756Z,99.90
2022-08-17T03:03:13.627Z,99.90
2022-08-17T03:05:42.419Z,99.90
2022-08-17T03:08:13.422Z,99.90
2022-08-17T03:10:45.023Z,99.90
2022-08-17T03:13:15.772Z,99.90
2022-08-17T03:15:46.404Z,99.90
2022-08-17T03:18:25.082Z,99.90
2022-08-17T03:20:55.557Z,99.90
2022-08-17T03:23:25.606Z,99.90
2022-08-17T03:25:56.595Z,99.90
2022-08-17T03:28:25.992Z,99.90
2022-08-17T03:30:54.998Z,99.90
2022-08-17T03:33:24.465Z,99.90
2022-08-17T03:35:53.536Z,99.90
2022-08-17T03:38:23.278Z,99.90
2022-08-17T03:40:57.058Z,99.90
2022-08-17T03:43:33.038Z,99.90
2022-08-17T03:46:28.216Z,99.90
2022-08-17T03:49:22.543Z,99.90
2022-08-17T03:52:08.543Z,99.90
2022-08-17T03:54:55.415Z,99.90
2022-08-17T03:57:24.756Z,99.90
2022-08-17T03:59:55.939Z,99.90
2022-08-17T04:02:28.025Z,99.90
2022-08-17T04:04:57.587Z,99.90
2022-08-17T04:07:29.845Z,99.90
2022-08-17T04:09:59.537Z,99.90
2022-08-17T04:12:31.021Z,99.90
2022-08-17T04:15:01.683Z,99.90
2022-08-17T04:17:30.803Z,99.90
2022-08-17T04:19:59.739Z,99.90
2022-08-17T04:22:32.479Z,99.90
2022-08-17T04:25:08.072Z,99.90
2022-08-17T04:27:37.180Z,99.90
2022-08-17T04:30:08.378Z,99.90
2022-08-17T04:33:04.251Z,99.90
2022-08-17T04:35:38.620Z,99.90
2022-08-17T04:38:08.834Z,99.90
2022-08-17T04:40:55.149Z,99.90
2022-08-17T04:43:27.059Z,99.90
2022-08-17T04:45:59.060Z,99.90
2022-08-17T04:48:36.150Z,99.90
2022-08-17T04:51:09.943Z,99.90
2022-08-17T04:53:40.416Z,99.90
2022-08-17T04:56:16.100Z,99.90
2022-08-17T04:58:48.284Z,99.90
2022-08-17T05:01:23.457Z,99.90
2022-08-17T05:03:54.308Z,99.90
2022-08-17T05:06:23.959Z,99.90
2022-08-17T05:08:52.896Z,99.90
2022-08-17T05:11:22.378Z,99.90
2022-08-17T05:13:51.506Z,99.90
2022-08-17T05:16:22.911Z,99.90
2022-08-17T05:18:52.181Z,99.90
2022-08-17T05:21:22.110Z,99.90
2022-08-17T05:23:56.181Z,99.90
2022-08-17T05:26:27.431Z,99.90
2022-08-17T05:28:59.771Z,99.90
2022-08-17T05:31:31.956Z,99.90
2022-08-17T05:34:00.880Z,99.90
2022-08-17T05:36:41.708Z,99.90
2022-08-17T05:39:16.707Z,99.90
2022-08-17T05:41:48.741Z,99.90
2022-08-17T05:44:18.018Z,99.90
2022-08-17T05:46:51.906Z,99.90
2022-08-17T05:49:29.540Z,99.90
2022-08-17T05:52:21.992Z,99.90
2022-08-17T05:55:09.043Z,99.90
2022-08-17T05:57:47.673Z,99.90
2022-08-17T06:00:30.529Z,99.90
2022-08-17T06:03:18.537Z,99.90
2022-08-17T06:06:06.294Z,99.90
2022-08-17T06:08:45.406Z,99.90
2022-08-17T06:11:23.657Z,99.90
2022-08-17T06:14:10.666Z,99.90
2022-08-17T06:16:42.770Z,99.90
2022-08-17T06:19:18.271Z,99.90
2022-08-17T06:21:52.266Z,99.90
2022-08-17T06:24:27.461Z,99.90
2022-08-17T06:26:58.455Z,99.90
2022-08-17T06:29:37.261Z,99.90
2022-08-17T06:32:08.968Z,99.90
2022-08-17T06:34:40.664Z,99.90
2022-08-17T06:37:43.750Z,99.90
2022-08-17T06:40:32.108Z,99.90
2022-08-17T06:43:21.578Z,99.90
2022-08-17T06:45:58.818Z,99.90
2022-08-17T06:48:34.461Z,99.90
2022-08-17T06:51:15.487Z,99.90
2022-08-17T06:53:48.987Z,99.90
2022-08-17T06:56:53.222Z,99.90
2022-08-17T06:59:20.425Z,99.90
2022-08-17T07:01:52.157Z,99.90
2022-08-17T07:04:24.676Z,99.90
2022-08-17T07:07:00.046Z,99.90
2022-08-17T07:09:36.350Z,99.90
2022-08-17T07:12:13.720Z,99.90
2022-08-17T07:14:51.800Z,99.90
2022-08-17T07:17:36.919Z,99.90
2022-08-17T07:20:17.712Z,99.90
2022-08-17T07:23:00.261Z,99.90
2022-08-17T07:25:30.809Z,99.90
2022-08-17T07:28:02.511Z,99.90
2022-08-17T07:30:44.569Z,99.90
2022-08-17T07:33:20.440Z,99.90
2022-08-17T07:35:50.286Z,99.90
2022-08-17T07:38:25.859Z,99.90
2022-08-17T07:41:07.936Z,99.90
2022-08-17T07:43:46.179Z,99.90
2022-08-17T07:46:36.129Z,99.90
2022-08-17T07:49:25.332Z,99.90
2022-08-17T07:52:24.246Z,99.90
2022-08-17T07:54:51.486Z,99.80
2022-08-17T07:57:32.836Z,99.90
2022-08-17T08:00:32.030Z,99.30
2022-08-17T08:03:14.794Z,99.50
2022-08-17T08:05:52.626Z,98.30
2022-08-17T08:08:29.149Z,98.70
2022-08-17T08:11:29.236Z,97.30
2022-08-17T08:14:21.701Z,97.90
2022-08-17T08:17:00.391Z,98.30
2022-08-17T08:19:30.158Z,96.40
2022-08-17T08:22:07.708Z,95.60
2022-08-17T08:24:55.530Z,94.40
2022-08-17T08:27:38.516Z,96.10
2022-08-17T08:30:10.813Z,93.20
2022-08-17T08:33:04.233Z,93.70
2022-08-17T08:35:35.640Z,95.10
2022-08-17T08:38:16.390Z,92.80
2022-08-17T08:40:58.520Z,90.90
2022-08-17T08:43:39.217Z,94.10
2022-08-17T08:46:22.668Z,90.30
2022-08-17T08:49:33.813Z,92.60
2022-08-17T08:52:21.889Z,90.20
2022-08-17T08:54:59.553Z,87.10
2022-08-17T08:57:34.339Z,86.10
2022-08-17T09:00:21.160Z,86.50
2022-08-17T09:03:51.899Z,85.10
2022-08-17T09:06:39.000Z,84.90
2022-08-17T09:09:20.129Z,85.80
2022-08-17T09:12:02.874Z,81.50
2022-08-17T09:14:45.382Z,79.30
2022-08-17T09:17:22.483Z,80.30
2022-08-17T09:19:57.241Z,81.90
2022-08-17T09:22:34.496Z,83.80
2022-08-17T09:25:09.244Z,86.00
2022-08-17T09:27:51.577Z,78.50
2022-08-17T09:30:21.103Z,73.20
2022-08-17T09:32:58.843Z,71.20
2022-08-17T09:35:37.013Z,71.00
2022-08-17T09:38:21.082Z,70.20
2022-08-17T09:40:54.409Z,70.00
2022-08-17T09:43:35.275Z,71.50
2022-08-17T09:46:11.290Z,68.20
2022-08-17T09:48:50.301Z,68.80
2022-08-17T09:51:25.909Z,69.00
2022-08-17T09:53:54.683Z,67.30
2022-08-17T09:56:42.327Z,68.40
2022-08-17T09:59:38.229Z,66.90
2022-08-17T10:02:33.160Z,67.70
2022-08-17T10:05:09.512Z,67.50
2022-08-17T10:07:43.891Z,67.90
2022-08-17T10:10:17.266Z,65.70
2022-08-17T10:12:56.643Z,64.90
2022-08-17T10:15:48.340Z,62.30
2022-08-17T10:18:30.512Z,60.70
2022-08-17T10:21:24.768Z,58.70
2022-08-17T10:24:16.438Z,57.20
2022-08-17T10:26:57.246Z,57.20
2022-08-17T10:29:47.334Z,56.60
2022-08-17T10:32:27.288Z,58.10
2022-08-17T10:35:26.200Z,58.40
2022-08-17T10:38:21.546Z,59.40
2022-08-17T10:40:58.662Z,58.20
2022-08-17T10:43:38.286Z,58.70
2022-08-17T10:46:30.862Z,58.40
2022-08-17T10:49:30.576Z,57.50
2022-08-17T10:52:00.936Z,57.40
2022-08-17T10:55:08.749Z,56.80
2022-08-17T10:57:41.232Z,57.60
2022-08-17T11:00:14.875Z,57.30
2022-08-17T11:02:50.953Z,55.70
2022-08-17T11:05:44.591Z,56.40
2022-08-17T11:08:57.576Z,55.00
2022-08-17T11:11:52.766Z,53.90
2022-08-17T11:14:34.915Z,53.10
2022-08-17T11:17:16.399Z,53.60
2022-08-17T11:20:22.818Z,53.60
2022-08-17T11:23:10.978Z,54.30
2022-08-17T11:25:42.042Z,54.20
2022-08-17T11:28:19.255Z,54.10
2022-08-17T11:30:50.869Z,54.20
2022-08-17T11:33:58.851Z,55.20
2022-08-17T11:36:41.632Z,55.00
2022-08-17T11:39:26.521Z,54.40
2022-08-17T11:42:01.356Z,55.00
2022-08-17T11:44:44.040Z,55.20
2022-08-17T11:47:36.468Z,56.00
2022-08-17T11:50:49.542Z,56.60
2022-08-17T11:54:14.721Z,53.00
2022-08-17T11:56:47.251Z,54.10
2022-08-17T12:00:10.159Z,54.10
2022-08-17T12:02:48.295Z,55.70
2022-08-17T12:05:34.100Z,55.10
2022-08-17T12:08:15.925Z,55.70
2022-08-17T12:10:55.428Z,56.70
2022-08-17T12:13:30.469Z,55.80
2022-08-17T12:16:09.900Z,55.70
2022-08-17T12:18:42.045Z,56.00
2022-08-17T12:21:23.545Z,56.40
2022-08-17T12:23:58.650Z,56.60
2022-08-17T12:26:31.869Z,56.90
2022-08-17T12:29:03.099Z,56.30
2022-08-17T12:31:43.323Z,55.90
2022-08-17T12:34:18.977Z,56.50
2022-08-17T12:36:51.054Z,55.30
2022-08-17T12:39:22.963Z,56.70
2022-08-17T12:42:01.550Z,55.80
2022-08-17T12:44:33.581Z,56.10
2022-08-17T12:47:21.929Z,54.30
2022-08-17T12:49:54.331Z,55.30
2022-08-17T12:52:25.585Z,54.00
2022-08-17T12:54:59.386Z,52.60
2022-08-17T12:57:33.131Z,55.30
2022-08-17T13:00:09.664Z,54.60
2022-08-17T13:02:45.941Z,55.70
2022-08-17T13:05:24.986Z,56.20
2022-08-17T13:07:54.577Z,56.40
2022-08-17T13:10:32.557Z,57.00
2022-08-17T13:13:05.963Z,55.70
2022-08-17T13:15:44.816Z,55.60
2022-08-17T13:18:39.858Z,55.30
2022-08-17T13:21:27.225Z,55.30
2022-08-17T13:24:01.471Z,55.70
2022-08-17T13:26:40.221Z,54.80
2022-08-17T13:29:18.448Z,55.20
2022-08-17T13:31:52.850Z,54.80
2022-08-17T13:34:39.906Z,53.20
2022-08-17T13:37:32.667Z,53.40
2022-08-17T13:40:04.598Z,53.70
2022-08-17T13:42:52.087Z,52.60
2022-08-17T13:45:54.517Z,52.20
2022-08-17T13:48:32.191Z,51.70
2022-08-17T13:51:24.505Z,51.50
2022-08-17T13:54:24.440Z,51.70
2022-08-17T13:56:58.820Z,51.00
2022-08-17T13:59:53.704Z,51.10
2022-08-17T14:02:28.258Z,51.10
2022-08-17T14:05:00.615Z,50.70
2022-08-17T14:07:33.776Z,49.00
2022-08-17T14:10:09.492Z,48.30
2022-08-17T14:12:40.954Z,49.80
2022-08-17T14:15:11.914Z,49.10
2022-08-17T14:17:40.545Z,51.00
2022-08-17T14:20:11.850Z,50.20
2022-08-17T14:22:44.172Z,51.10
2022-08-17T14:25:16.765Z,50.40
2022-08-17T14:27:52.777Z,51.20
2022-08-17T14:30:28.862Z,50.80
2022-08-17T14:32:58.723Z,50.30
2022-08-17T14:35:29.381Z,50.40
2022-08-17T14:37:58.217Z,50.80
2022-08-17T14:40:29.241Z,48.80
2022-08-17T14:42:58.492Z,48.70
2022-08-17T14:45:32.896Z,49.50
2022-08-17T14:48:05.808Z,50.30
2022-08-17T14:50:36.234Z,52.20
2022-08-17T14:53:06.531Z,52.50
2022-08-17T14:55:39.872Z,53.00
2022-08-17T14:58:09.447Z,54.00
2022-08-17T15:00:39.502Z,52.00
2022-08-17T15:03:08.228Z,52.80
2022-08-17T15:05:39.299Z,53.50
2022-08-17T15:08:08.933Z,54.30
2022-08-17T15:10:39.251Z,54.40
2022-08-17T15:13:17.855Z,54.40
2022-08-17T15:15:46.829Z,53.70
2022-08-17T15:18:15.764Z,53.80
2022-08-17T15:20:45.867Z,54.10
2022-08-17T15:23:15.118Z,53.80
2022-08-17T15:25:46.339Z,54.20
2022-08-17T15:28:15.623Z,54.70
2022-08-17T15:30:45.119Z,54.60
2022-08-17T15:33:15.663Z,54.40
2022-08-17T15:35:45.861Z,54.80
2022-08-17T15:38:14.443Z,54.10
2022-08-17T15:40:47.596Z,53.30
2022-08-17T15:43:24.757Z,54.40
2022-08-17T15:46:00.771Z,54.60
2022-08-17T15:48:41.400Z,54.60
2022-08-17T15:51:12.831Z,54.50
2022-08-17T15:53:43.165Z,55.00
2022-08-17T15:56:15.432Z,56.10
2022-08-17T15:58:46.593Z,55.10
2022-08-17T16:01:25.370Z,53.70
2022-08-17T16:04:14.910Z,55.50
2022-08-17T16:06:55.171Z,54.40
2022-08-17T16:09:23.676Z,53.80
2022-08-17T16:11:55.578Z,55.40
2022-08-17T16:14:30.330Z,56.10
2022-08-17T16:17:04.814Z,56.50
2022-08-17T16:19:53.710Z,56.70
2022-08-17T16:22:32.336Z,56.20
2022-08-17T16:25:03.856Z,56.90
2022-08-17T16:27:33.786Z,56.10
2022-08-17T16:30:02.419Z,56.30
2022-08-17T16:32:32.936Z,56.30
2022-08-17T16:35:05.305Z,55.80
2022-08-17T16:37:36.621Z,58.30
2022-08-17T16:40:07.674Z,58.70
2022-08-17T16:42:39.526Z,58.00
2022-08-17T16:45:11.780Z,58.10
2022-08-17T16:47:41.819Z,57.90
2022-08-17T16:50:12.226Z,57.80
2022-08-17T16:52:41.337Z,58.20
2022-08-17T16:55:13.312Z,58.80
2022-08-17T16:57:47.573Z,59.30
2022-08-17T17:00:21.008Z,59.50
2022-08-17T17:02:50.482Z,59.70
2022-08-17T17:05:44.819Z,60.10
2022-08-17T17:08:26.072Z,60.00
2022-08-17T17:10:58.731Z,60.10
2022-08-17T17:13:33.532Z,60.30
2022-08-17T17:16:07.404Z,60.80
2022-08-17T17:18:42.510Z,61.00
2022-08-17T17:21:15.261Z,61.40
2022-08-17T17:23:52.532Z,62.80
2022-08-17T17:26:59.984Z,63.00
2022-08-17T17:29:46.504Z,63.80
2022-08-17T17:32:23.053Z,64.70
2022-08-17T17:34:56.083Z,64.50
2022-08-17T17:37:32.603Z,64.20
2022-08-17T17:40:05.783Z,64.50
2022-08-17T17:42:35.789Z,65.80
2022-08-17T17:45:17.028Z,66.80
2022-08-17T17:47:46.572Z,66.80
2022-08-17T17:50:17.981Z,67.00
2022-08-17T17:52:51.938Z,67.80
2022-08-17T17:55:32.875Z,68.40
2022-08-17T17:58:10.044Z,69.10
2022-08-17T18:00:44.667Z,69.60
2022-08-17T18:03:26.409Z,70.10
2022-08-17T18:06:14.996Z,70.70
2022-08-17T18:08:53.861Z,71.10
2022-08-17T18:11:37.051Z,71.10
2022-08-17T18:14:18.535Z,71.70
2022-08-17T18:16:54.736Z,72.20
2022-08-17T18:19:26.271Z,72.80
2022-08-17T18:22:04.027Z,73.60
2022-08-17T18:24:38.714Z,74.50
2022-08-17T18:27:23.434Z,75.20
2022-08-17T18:29:54.171Z,75.70
2022-08-17T18:32:34.730Z,77.30
2022-08-17T18:35:35.235Z,77.50
2022-08-17T18:38:23.687Z,78.10
2022-08-17T18:41:01.977Z,78.70
2022-08-17T18:43:43.734Z,78.80
2022-08-17T18:46:29.678Z,79.30
2022-08-17T18:49:03.642Z,79.60
2022-08-17T18:51:40.307Z,80.40
2022-08-17T18:54:20.060Z,80.80
2022-08-17T18:56:55.416Z,81.70
2022-08-17T18:59:30.932Z,82.40
2022-08-17T19:02:27.221Z,83.30
2022-08-17T19:05:10.668Z,84.00
2022-08-17T19:07:41.828Z,84.90
2022-08-17T19:10:24.478Z,85.10
2022-08-17T19:13:00.842Z,86.10
2022-08-17T19:15:38.058Z,86.10
2022-08-17T19:18:15.632Z,86.30
2022-08-17T19:21:00.331Z,87.90
2022-08-17T19:37:18.298Z,89.00
2022-08-17T19:39:53.320Z,91.00
2022-08-17T19:42:37.106Z,91.70
2022-08-17T19:45:14.032Z,92.20
2022-08-17T19:48:04.987Z,92.20
2022-08-17T19:50:41.104Z,92.20
2022-08-17T19:53:21.409Z,92.60
2022-08-17T19:56:01.292Z,92.80
2022-08-17T19:58:45.799Z,93.30
2022-08-17T20:01:21.159Z,93.30
2022-08-17T20:03:58.552Z,93.30
2022-08-17T20:06:30.169Z,93.50
2022-08-17T20:09:12.966Z,93.40
2022-08-17T20:11:48.906Z,93.20
2022-08-17T20:14:21.778Z,93.00
2022-08-17T20:16:50.688Z,93.50
2022-08-17T20:19:25.386Z,93.60
2022-08-17T20:21:59.754Z,93.90
2022-08-17T20:24:39.209Z,94.10
2022-08-17T20:27:15.476Z,94.40
2022-08-17T20:30:09.323Z,95.00
2022-08-17T20:32:52.505Z,95.10
2022-08-17T20:35:26.044Z,95.40
2022-08-17T20:37:58.859Z,96.00
2022-08-17T20:40:33.410Z,96.20
2022-08-17T20:43:40.679Z,96.20
2022-08-17T20:46:20.991Z,96.50
2022-08-17T20:48:53.999Z,97.30
2022-08-17T20:51:31.565Z,98.00
2022-08-17T20:54:37.027Z,99.90
2022-08-17T20:57:13.894Z,99.90
2022-08-17T21:00:02.815Z,99.90
2022-08-17T21:02:32.924Z,99.90
2022-08-17T21:05:30.400Z,99.90
2022-08-17T21:08:02.435Z,99.90
2022-08-17T21:10:36.618Z,99.90
2022-08-17T21:13:46.518Z,99.90
2022-08-17T21:16:51.054Z,99.90
2022-08-17T21:19:44.410Z,99.90
2022-08-17T21:22:38.854Z,99.90
2022-08-17T21:25:20.544Z,99.90
2022-08-17T21:28:00.727Z,99.90
2022-08-17T21:30:50.053Z,99.90
2022-08-17T21:33:25.593Z,99.90
2022-08-17T21:36:16.835Z,99.90
2022-08-17T21:38:57.975Z,99.90
2022-08-17T21:41:29.732Z,99.90
2022-08-17T21:44:07.581Z,99.90
2022-08-17T21:46:46.616Z,99.90
2022-08-17T21:49:17.875Z,99.90
2022-08-17T21:51:50.471Z,99.90
2022-08-17T21:54:31.958Z,99.90
2022-08-17T21:57:04.053Z,99.90
2022-08-17T21:59:36.662Z,99.90
2022-08-17T22:02:10.310Z,99.90
2022-08-17T22:04:41.306Z,99.90
2022-08-17T22:07:13.100Z,99.90
2022-08-17T22:09:44.821Z,99.90
2022-08-17T22:12:18.334Z,99.90
2022-08-17T22:14:57.675Z,99.90
2022-08-17T22:17:29.562Z,99.90
2022-08-17T22:20:01.419Z,99.90
2022-08-17T22:23:00.064Z,99.90
2022-08-17T22:25:29.614Z,99.90
2022-08-17T22:28:01.159Z,99.90
2022-08-17T22:30:41.034Z,99.90
2022-08-17T22:33:39.623Z,99.90
2022-08-17T22:36:30.146Z,99.90
2022-08-17T22:39:01.585Z,99.90
2022-08-17T22:41:41.545Z,99.90
2022-08-17T22:44:27.344Z,99.90
2022-08-17T22:47:02.291Z,99.90
2022-08-17T22:49:38.581Z,99.90
2022-08-17T22:52:34.070Z,99.90
2022-08-17T22:55:25.287Z,99.90
2022-08-17T22:58:11.489Z,99.90
2022-08-17T23:00:42.682Z,99.90
2022-08-17T23:03:16.151Z,99.90
2022-08-17T23:05:50.089Z,99.90
2022-08-17T23:08:21.574Z,99.90
2022-08-17T23:10:50.470Z,99.90
2022-08-17T23:13:21.334Z,99.90
2022-08-17T23:15:52.124Z,99.90
2022-08-17T23:18:23.498Z,99.90
2022-08-17T23:20:53.758Z,99.90
2022-08-17T23:23:23.978Z,99.90
2022-08-17T23:25:54.643Z,99.90
2022-08-17T23:28:23.405Z,99.90
2022-08-17T23:30:52.517Z,99.90
2022-08-17T23:33:27.110Z,99.90
2022-08-17T23:35:58.915Z,99.90
2022-08-17T23:38:28.711Z,99.90
2022-08-17T23:41:00.192Z,99.90
2022-08-17T23:43:31.448Z,99.90
2022-08-17T23:46:03.641Z,99.90
2022-08-17T23:48:36.749Z,99.90
2022-08-17T23:51:13.259Z,99.90
2022-08-17T23:53:47.347Z,99.90
2022-08-17T23:56:19.075Z,99.90
2022-08-17T23:58:47.852Z,99.90
